createdAt,value
2022-12-25T00:00:42.195Z,99473.94
2022-12-25T00:03:08.866Z,99467.84
2022-12-25T00:05:38.565Z,99464.38
2022-12-25T00:08:06.077Z,99469.94
2022-12-25T00:10:33.176Z,99464.91
2022-12-25T00:12:59.716Z,99465.94
2022-12-25T00:15:26.367Z,99465.66
2022-12-25T00:17:52.920Z,99456.38
2022-12-25T00:20:19.487Z,99451.31
2022-12-25T00:22:46.042Z,99454.50
2022-12-25T00:25:12.556Z,99452.88
2022-12-25T00:27:39.488Z,99455.78
2022-12-25T00:30:07.923Z,99448.34
2022-12-25T00:32:37.627Z,99439.88
2022-12-25T00:35:05.583Z,99446.22
2022-12-25T00:37:32.123Z,99447.75
2022-12-25T00:39:58.888Z,99448.81
2022-12-25T00:42:27.012Z,99458.28
2022-12-25T00:44:53.539Z,99459.81
2022-12-25T00:47:20.192Z,99465.59
2022-12-25T00:49:46.848Z,99460.00
2022-12-25T00:52:13.639Z,99460.28
2022-12-25T00:54:40.153Z,99462.59
2022-12-25T00:57:06.738Z,99449.66
2022-12-25T00:59:34.696Z,99460.44
2022-12-25T01:02:21.700Z,99453.09
2022-12-25T01:04:49.291Z,99444.91
2022-12-25T01:07:18.885Z,99445.97
2022-12-25T01:10:05.170Z,99457.31
2022-12-25T01:12:36.013Z,99462.88
2022-12-25T01:15:03.399Z,99472.63
2022-12-25T01:17:29.915Z,99471.28
2022-12-25T01:19:56.520Z,99467.59
2022-12-25T01:22:23.213Z,99462.31
2022-12-25T01:24:49.841Z,99468.63
2022-12-25T01:27:16.937Z,99477.34
2022-12-25T01:29:43.527Z,99474.22
2022-12-25T01:32:10.177Z,99475.50
2022-12-25T01:34:36.899Z,99478.16
2022-12-25T01:37:03.506Z,99472.34
2022-12-25T01:39:30.472Z,99462.56
2022-12-25T01:41:57.260Z,99468.63
2022-12-25T01:44:35.803Z,99480.00
2022-12-25T01:47:06.622Z,99471.28
2022-12-25T01:49:37.484Z,99480.78
2022-12-25T01:52:25.219Z,99481.59
2022-12-25T01:54:55.987Z,99476.81
2022-12-25T01:57:27.105Z,99478.09
2022-12-25T01:59:55.201Z,99470.94
2022-12-25T02:02:22.832Z,99473.31
2022-12-25T02:04:59.701Z,99473.31
2022-12-25T02:07:28.371Z,99473.00
2022-12-25T02:09:55.075Z,99472.50
2022-12-25T02:12:30.495Z,99471.16
2022-12-25T02:15:04.840Z,99473.78
2022-12-25T02:17:41.778Z,99477.78
2022-12-25T02:20:41.909Z,99472.78
2022-12-25T02:23:26.474Z,99472.78
2022-12-25T02:26:05.195Z,99471.41
2022-12-25T02:28:53.462Z,99457.66
2022-12-25T02:31:26.005Z,99460.81
2022-12-25T02:34:05.199Z,99469.22
2022-12-25T02:36:52.535Z,99453.06
2022-12-25T02:39:43.834Z,99460.19
2022-12-25T02:42:21.201Z,99450.09
2022-12-25T02:45:09.806Z,99445.88
2022-12-25T02:47:56.651Z,99452.44
2022-12-25T02:50:44.309Z,99447.06
2022-12-25T02:53:31.038Z,99449.72
2022-12-25T02:56:17.435Z,99447.88
2022-12-25T02:59:04.773Z,99448.34
2022-12-25T03:01:53.371Z,99447.03
2022-12-25T03:05:00.561Z,99442.28
2022-12-25T03:07:29.771Z,99445.19
2022-12-25T03:10:21.583Z,99442.75
2022-12-25T03:12:56.351Z,99445.41
2022-12-25T03:15:42.043Z,99447.81
2022-12-25T03:18:14.826Z,99440.38
2022-12-25T03:21:00.143Z,99430.63
2022-12-25T03:23:50.284Z,99420.06
2022-12-25T03:26:36.345Z,99424.28
2022-12-25T03:29:03.639Z,99423.75
2022-12-25T03:31:53.565Z,99415.28
2022-12-25T03:34:51.389Z,99412.41
2022-12-25T03:37:44.077Z,99412.88
2022-12-25T03:40:41.500Z,99421.84
2022-12-25T03:43:51.491Z,99409.41
2022-12-25T03:46:42.178Z,99400.66
2022-12-25T03:49:50.125Z,99408.31
2022-12-25T03:52:38.226Z,99405.56
2022-12-25T03:55:27.694Z,99399.44
2022-12-25T03:58:13.109Z,99394.19
2022-12-25T04:00:58.187Z,99402.03
2022-12-25T04:03:43.250Z,99394.84
2022-12-25T04:06:28.348Z,99397.56
2022-12-25T04:09:13.211Z,99389.63
2022-12-25T04:12:02.531Z,99389.88
2022-12-25T04:14:48.098Z,99388.53
2022-12-25T04:17:33.206Z,99392.19
2022-12-25T04:20:18.336Z,99396.94
2022-12-25T04:23:03.352Z,99399.56
2022-12-25T04:25:55.778Z,99400.38
2022-12-25T04:28:45.099Z,99392.94
2022-12-25T04:31:30.538Z,99392.72
2022-12-25T04:34:15.633Z,99387.16
2022-12-25T04:36:42.237Z,99390.59
2022-12-25T04:39:09.770Z,99388.53
2022-12-25T04:41:36.527Z,99388.53
2022-12-25T04:44:03.191Z,99383.78
2022-12-25T04:46:29.880Z,99382.47
2022-12-25T04:48:56.904Z,99376.69
2022-12-25T04:51:25.728Z,99372.19
2022-12-25T04:53:53.611Z,99371.16
2022-12-25T04:56:21.848Z,99363.78
2022-12-25T04:58:49.095Z,99363.56
2022-12-25T05:01:15.930Z,99356.19
2022-12-25T05:03:43.254Z,99362.81
2022-12-25T05:06:09.911Z,99340.13
2022-12-25T05:08:37.051Z,99344.34
2022-12-25T05:11:12.516Z,99344.09
2022-12-25T05:13:39.613Z,99348.31
2022-12-25T05:16:08.815Z,99345.44
2022-12-25T05:18:36.036Z,99341.75
2022-12-25T05:21:03.009Z,99332.56
2022-12-25T05:23:29.497Z,99347.09
2022-12-25T05:25:56.518Z,99341.00
2022-12-25T05:28:23.085Z,99338.16
2022-12-25T05:30:49.766Z,99331.81
2022-12-25T05:33:16.402Z,99341.31
2022-12-25T05:35:43.004Z,99336.03
2022-12-25T05:38:09.598Z,99342.91
2022-12-25T05:40:40.089Z,99339.16
2022-12-25T05:43:07.429Z,99336.59
2022-12-25T05:45:34.062Z,99342.69
2022-12-25T05:48:00.606Z,99336.03
2022-12-25T05:50:27.156Z,99343.47
2022-12-25T05:52:53.679Z,99345.84
2022-12-25T05:55:20.212Z,99345.06
2022-12-25T05:57:46.730Z,99343.22
2022-12-25T06:00:13.535Z,99342.41
2022-12-25T06:02:40.305Z,99334.28
2022-12-25T06:05:07.495Z,99340.34
2022-12-25T06:07:34.023Z,99339.56
2022-12-25T06:10:00.560Z,99331.38
2022-12-25T06:12:27.060Z,99330.56
2022-12-25T06:14:53.594Z,99333.22
2022-12-25T06:17:20.104Z,99336.66
2022-12-25T06:19:46.619Z,99326.88
2022-12-25T06:22:13.107Z,99323.44
2022-12-25T06:24:40.739Z,99307.63
2022-12-25T06:27:07.215Z,99318.19
2022-12-25T06:29:33.719Z,99314.97
2022-12-25T06:32:00.295Z,99314.75
2022-12-25T06:34:27.191Z,99321.88
2022-12-25T06:36:53.830Z,99316.03
2022-12-25T06:39:21.449Z,99320.25
2022-12-25T06:41:48.551Z,99316.03
2022-12-25T06:44:15.031Z,99326.84
2022-12-25T06:46:41.548Z,99328.16
2022-12-25T06:49:08.084Z,99324.19
2022-12-25T06:51:34.639Z,99318.13
2022-12-25T06:54:04.331Z,99323.41
2022-12-25T06:56:32.166Z,99321.31
2022-12-25T06:59:06.259Z,99320.78
2022-12-25T07:01:35.711Z,99320.50
2022-12-25T07:04:05.824Z,99322.09
2022-12-25T07:06:32.398Z,99325.00
2022-12-25T07:08:59.185Z,99328.44
2022-12-25T07:11:25.995Z,99325.53
2022-12-25T07:13:52.584Z,99331.84
2022-12-25T07:16:19.279Z,99328.44
2022-12-25T07:18:45.889Z,99322.34
2022-12-25T07:21:15.600Z,99320.78
2022-12-25T07:23:42.960Z,99328.69
2022-12-25T07:26:11.231Z,99336.59
2022-12-25T07:28:37.827Z,99334.19
2022-12-25T07:31:06.834Z,99342.38
2022-12-25T07:33:34.046Z,99335.50
2022-12-25T07:36:01.031Z,99347.66
2022-12-25T07:38:27.594Z,99356.63
2022-12-25T07:40:54.232Z,99357.41
2022-12-25T07:43:20.863Z,99358.44
2022-12-25T07:45:47.426Z,99360.28
2022-12-25T07:48:16.864Z,99360.28
2022-12-25T07:50:43.843Z,99356.06
2022-12-25T07:53:10.432Z,99351.84
2022-12-25T07:55:36.972Z,99352.88
2022-12-25T07:58:03.504Z,99353.91
2022-12-25T08:00:33.678Z,99363.44
2022-12-25T08:03:00.344Z,99358.69
2022-12-25T08:05:27.153Z,99368.72
2022-12-25T08:07:57.536Z,99369.50
2022-12-25T08:10:24.637Z,99371.34
2022-12-25T08:12:52.091Z,99372.94
2022-12-25T08:15:18.752Z,99361.81
2022-12-25T08:17:45.269Z,99372.38
2022-12-25T08:20:12.269Z,99376.06
2022-12-25T08:22:38.814Z,99382.41
2022-12-25T08:25:05.405Z,99382.09
2022-12-25T08:27:31.954Z,99377.34
2022-12-25T08:29:58.508Z,99383.94
2022-12-25T08:32:25.026Z,99395.03
2022-12-25T08:34:51.672Z,99398.72
2022-12-25T08:37:18.184Z,99405.56
2022-12-25T08:39:44.652Z,99397.44
2022-12-25T08:42:11.196Z,99395.59
2022-12-25T08:44:37.767Z,99404.31
2022-12-25T08:47:04.508Z,99391.91
2022-12-25T08:49:31.069Z,99399.56
2022-12-25T08:51:57.694Z,99401.19
2022-12-25T08:54:24.871Z,99404.34
2022-12-25T08:56:51.439Z,99416.50
2022-12-25T08:59:17.919Z,99407.56
2022-12-25T09:01:44.498Z,99404.66
2022-12-25T09:04:11.198Z,99400.44
2022-12-25T09:06:37.688Z,99411.53
2022-12-25T09:09:04.202Z,99408.09
2022-12-25T09:11:30.764Z,99411.53
2022-12-25T09:13:57.243Z,99410.50
2022-12-25T09:16:23.944Z,99406.03
2022-12-25T09:18:50.606Z,99407.59
2022-12-25T09:21:18.300Z,99415.28
2022-12-25T09:23:45.332Z,99405.28
2022-12-25T09:26:14.381Z,99411.34
2022-12-25T09:28:46.554Z,99415.09
2022-12-25T09:31:17.123Z,99413.25
2022-12-25T09:33:45.047Z,99411.16
2022-12-25T09:36:11.934Z,99420.41
2022-12-25T09:38:38.552Z,99421.25
2022-12-25T09:41:07.843Z,99418.13
2022-12-25T09:43:40.745Z,99410.75
2022-12-25T09:46:13.998Z,99411.28
2022-12-25T09:48:45.712Z,99414.50
2022-12-25T09:51:17.205Z,99410.81
2022-12-25T09:53:55.273Z,99416.66
2022-12-25T09:56:25.972Z,99415.13
2022-12-25T09:58:53.823Z,99415.91
2022-12-25T10:01:41.161Z,99422.53
2022-12-25T10:04:19.364Z,99413.56
2022-12-25T10:06:56.785Z,99408.81
2022-12-25T10:10:02.229Z,99410.72
2022-12-25T10:13:16.794Z,99406.78
2022-12-25T10:16:01.347Z,99402.06
2022-12-25T10:18:52.529Z,99401.53
2022-12-25T10:21:20.601Z,99398.41
2022-12-25T10:23:49.722Z,99402.94
2022-12-25T10:26:22.903Z,99400.88
2022-12-25T10:29:13.890Z,99397.97
2022-12-25T10:31:41.915Z,99418.13
2022-12-25T10:34:12.142Z,99411.50
2022-12-25T10:36:38.707Z,99418.16
2022-12-25T10:39:05.249Z,99407.63
2022-12-25T10:41:42.895Z,99408.19
2022-12-25T10:44:20.765Z,99397.63
2022-12-25T10:46:52.688Z,99393.72
2022-12-25T10:49:23.103Z,99389.75
2022-12-25T10:51:50.283Z,99397.75
2022-12-25T10:54:21.339Z,99396.19
2022-12-25T10:57:08.258Z,99396.47
2022-12-25T10:59:41.627Z,99395.94
2022-12-25T11:02:27.158Z,99388.06
2022-12-25T11:05:14.246Z,99392.03
2022-12-25T11:07:54.474Z,99398.19
2022-12-25T11:10:30.060Z,99386.84
2022-12-25T11:12:58.133Z,99381.03
2022-12-25T11:15:45.565Z,99384.78
2022-12-25T11:18:54.255Z,99386.66
2022-12-25T11:21:26.920Z,99383.50
2022-12-25T11:24:04.535Z,99377.44
2022-12-25T11:26:36.927Z,99374.81
2022-12-25T11:29:22.997Z,99370.59
2022-12-25T11:31:51.213Z,99363.22
2022-12-25T11:34:24.854Z,99368.53
2022-12-25T11:36:54.604Z,99368.56
2022-12-25T11:39:36.332Z,99371.22
2022-12-25T11:42:08.936Z,99371.50
2022-12-25T11:44:54.759Z,99370.63
2022-12-25T11:47:37.173Z,99373.28
2022-12-25T11:50:07.781Z,99364.47
2022-12-25T11:52:38.936Z,99368.47
2022-12-25T11:55:16.093Z,99368.19
2022-12-25T11:57:47.258Z,99349.97
2022-12-25T12:00:16.208Z,99347.84
2022-12-25T12:02:53.003Z,99344.94
2022-12-25T12:05:25.589Z,99349.72
2022-12-25T12:08:02.192Z,99348.94
2022-12-25T12:10:31.603Z,99346.56
2022-12-25T12:13:15.627Z,99346.03
2022-12-25T12:15:44.894Z,99339.16
2022-12-25T12:18:26.700Z,99347.13
2022-12-25T12:21:04.454Z,99347.41
2022-12-25T12:23:34.763Z,99339.97
2022-12-25T12:26:02.905Z,99336.00
2022-12-25T12:28:43.640Z,99336.00
2022-12-25T12:31:10.581Z,99342.66
2022-12-25T12:33:44.002Z,99331.78
2022-12-25T12:36:14.490Z,99334.44
2022-12-25T12:38:43.609Z,99335.50
2022-12-25T12:41:12.616Z,99330.72
2022-12-25T12:44:00.896Z,99324.91
2022-12-25T12:46:38.742Z,99324.63
2022-12-25T12:49:28.578Z,99318.25
2022-12-25T12:52:06.201Z,99312.72
2022-12-25T12:54:32.938Z,99313.50
2022-12-25T12:57:21.506Z,99308.22
2022-12-25T12:59:48.044Z,99297.09
2022-12-25T13:02:36.781Z,99307.41
2022-12-25T13:05:18.145Z,99304.22
2022-12-25T13:07:54.033Z,99304.75
2022-12-25T13:10:26.104Z,99295.75
2022-12-25T13:12:55.230Z,99296.00
2022-12-25T13:15:24.762Z,99297.59
2022-12-25T13:17:51.580Z,99303.69
2022-12-25T13:20:24.686Z,99297.84
2022-12-25T13:22:53.052Z,99301.84
2022-12-25T13:25:22.657Z,99292.28
2022-12-25T13:27:59.582Z,99295.19
2022-12-25T13:30:26.595Z,99298.63
2022-12-25T13:32:53.475Z,99290.44
2022-12-25T13:35:22.861Z,99298.91
2022-12-25T13:37:49.921Z,99299.69
2022-12-25T13:40:27.049Z,99291.72
2022-12-25T13:43:00.455Z,99284.56
2022-12-25T13:45:30.130Z,99290.94
2022-12-25T13:47:57.415Z,99296.00
2022-12-25T13:50:32.972Z,99288.84
2022-12-25T13:53:12.634Z,99292.28
2022-12-25T13:55:41.329Z,99290.41
2022-12-25T13:58:20.356Z,99289.34
2022-12-25T14:00:49.824Z,99284.84
2022-12-25T14:03:25.881Z,99275.84
2022-12-25T14:06:04.353Z,99273.97
2022-12-25T14:08:33.836Z,99281.94
2022-12-25T14:11:06.196Z,99273.97
2022-12-25T14:13:37.596Z,99265.75
2022-12-25T14:16:05.153Z,99268.91
2022-12-25T14:18:32.489Z,99264.44
2022-12-25T14:21:01.647Z,99256.72
2022-12-25T14:23:40.245Z,99265.47
2022-12-25T14:26:07.097Z,99260.44
2022-12-25T14:28:34.534Z,99267.63
2022-12-25T14:31:02.635Z,99273.97
2022-12-25T14:33:36.594Z,99267.06
2022-12-25T14:36:03.393Z,99261.25
2022-12-25T14:38:40.952Z,99259.66
2022-12-25T14:41:34.389Z,99268.69
2022-12-25T14:44:03.551Z,99253.03
2022-12-25T14:46:32.798Z,99253.28
2022-12-25T14:49:25.379Z,99252.00
2022-12-25T14:51:52.052Z,99256.50
2022-12-25T14:54:22.339Z,99258.63
2022-12-25T14:56:51.992Z,99258.09
2022-12-25T14:59:21.591Z,99249.59
2022-12-25T15:01:55.738Z,99248.28
2022-12-25T15:04:23.857Z,99252.78
2022-12-25T15:06:56.851Z,99248.03
2022-12-25T15:09:24.003Z,99252.81
2022-12-25T15:11:52.292Z,99250.16
2022-12-25T15:14:19.158Z,99246.44
2022-12-25T15:16:48.755Z,99245.09
2022-12-25T15:19:38.256Z,99249.09
2022-12-25T15:22:06.008Z,99248.56
2022-12-25T15:24:32.566Z,99241.97
2022-12-25T15:27:00.754Z,99240.63
2022-12-25T15:30:00.242Z,99246.44
2022-12-25T15:32:21.066Z,99235.59
2022-12-25T15:34:49.867Z,99241.69
2022-12-25T15:37:17.996Z,99243.28
2022-12-25T15:39:44.724Z,99240.34
2022-12-25T15:42:19.344Z,99248.84
2022-12-25T15:44:46.187Z,99242.22
2022-12-25T15:47:14.216Z,99246.47
2022-12-25T15:49:41.501Z,99245.13
2022-12-25T15:52:12.325Z,99245.94
2022-12-25T15:54:38.824Z,99245.38
2022-12-25T15:57:07.471Z,99250.16
2022-12-25T15:59:34.234Z,99248.81
2022-12-25T16:02:01.676Z,99260.22
2022-12-25T16:04:31.287Z,99249.09
2022-12-25T16:06:59.368Z,99257.56
2022-12-25T16:09:27.538Z,99263.38
2022-12-25T16:11:54.044Z,99269.97
2022-12-25T16:14:21.880Z,99267.84
2022-12-25T16:16:48.478Z,99268.59
2022-12-25T16:19:15.053Z,99260.16
2022-12-25T16:21:44.561Z,99256.44
2022-12-25T16:24:11.857Z,99270.75
2022-12-25T16:26:38.675Z,99268.88
2022-12-25T16:29:07.390Z,99269.41
2022-12-25T16:31:34.860Z,99272.56
2022-12-25T16:34:01.752Z,99278.63
2022-12-25T16:36:28.663Z,99288.72
2022-12-25T16:38:55.235Z,99280.50
2022-12-25T16:41:21.924Z,99283.41
2022-12-25T16:43:48.815Z,99280.25
2022-12-25T16:46:18.505Z,99279.69
2022-12-25T16:48:45.155Z,99277.06
2022-12-25T16:51:14.930Z,99280.78
2022-12-25T16:53:41.543Z,99276.25
2022-12-25T16:56:10.999Z,99276.53
2022-12-25T16:58:37.868Z,99281.84
2022-12-25T17:01:06.799Z,99273.91
2022-12-25T17:03:33.493Z,99283.66
2022-12-25T17:06:00.207Z,99279.69
2022-12-25T17:08:26.771Z,99274.91
2022-12-25T17:10:53.488Z,99283.91
2022-12-25T17:13:20.077Z,99283.13
2022-12-25T17:15:50.411Z,99282.31
2022-12-25T17:18:21.767Z,99276.22
2022-12-25T17:20:53.156Z,99272.25
2022-12-25T17:23:20.869Z,99273.06
2022-12-25T17:25:47.375Z,99275.94
2022-12-25T17:28:14.154Z,99279.13
2022-12-25T17:30:40.757Z,99283.09
2022-12-25T17:33:07.329Z,99279.09
2022-12-25T17:35:37.100Z,99285.97
2022-12-25T17:38:03.811Z,99288.09
2022-12-25T17:40:30.357Z,99295.22
2022-12-25T17:42:56.876Z,99292.03
2022-12-25T17:45:23.526Z,99293.38
2022-12-25T17:47:54.910Z,99297.81
2022-12-25T17:50:22.283Z,99290.97
2022-12-25T17:52:48.830Z,99299.94
2022-12-25T17:55:15.356Z,99304.44
2022-12-25T17:57:41.848Z,99289.88
2022-12-25T18:00:08.776Z,99280.88
2022-12-25T18:02:35.698Z,99284.06
2022-12-25T18:05:02.306Z,99275.06
2022-12-25T18:07:28.816Z,99275.31
2022-12-25T18:09:55.433Z,99275.06
2022-12-25T18:12:22.099Z,99280.34
2022-12-25T18:14:48.664Z,99282.16
2022-12-25T18:17:15.219Z,99284.81
2022-12-25T18:19:41.736Z,99274.50
2022-12-25T18:22:08.295Z,99290.38
2022-12-25T18:24:34.826Z,99285.59
2022-12-25T18:27:01.358Z,99291.94
2022-12-25T18:29:27.887Z,99285.31
2022-12-25T18:31:55.588Z,99290.59
2022-12-25T18:34:23.312Z,99295.09
2022-12-25T18:36:49.828Z,99279.50
2022-12-25T18:39:16.392Z,99277.38
2022-12-25T18:42:01.595Z,99282.13
2022-12-25T18:44:30.393Z,99280.56
2022-12-25T18:46:56.921Z,99277.91
2022-12-25T18:49:23.442Z,99272.63
2022-12-25T18:51:50.159Z,99268.38
2022-12-25T18:54:16.800Z,99271.00
2022-12-25T18:56:43.380Z,99267.56
2022-12-25T18:59:09.932Z,99261.75
2022-12-25T19:01:36.613Z,99256.19
2022-12-25T19:04:05.391Z,99262.53
2022-12-25T19:06:33.389Z,99259.34
2022-12-25T19:09:00.086Z,99264.88
2022-12-25T19:11:26.613Z,99255.63
2022-12-25T19:13:53.142Z,99259.03
2022-12-25T19:16:19.771Z,99248.94
2022-12-25T19:18:46.384Z,99245.72
2022-12-25T19:21:13.093Z,99249.66
2022-12-25T19:23:39.903Z,99252.56
2022-12-25T19:26:08.126Z,99243.06
2022-12-25T19:28:35.329Z,99249.13
2022-12-25T19:31:03.039Z,99241.22
2022-12-25T19:33:33.064Z,99246.47
2022-12-25T19:36:11.803Z,99242.97
2022-12-25T19:38:38.643Z,99233.41
2022-12-25T19:41:13.776Z,99232.38
2022-12-25T19:43:42.290Z,99246.91
2022-12-25T19:46:16.493Z,99243.19
2022-12-25T19:48:43.208Z,99235.28
2022-12-25T19:51:17.405Z,99243.72
2022-12-25T19:53:44.295Z,99248.97
2022-12-25T19:56:10.879Z,99249.22
2022-12-25T19:58:37.488Z,99249.50
2022-12-25T20:01:08.317Z,99255.56
2022-12-25T20:03:38.837Z,99243.69
2022-12-25T20:06:23.275Z,99241.03
2022-12-25T20:08:52.690Z,99247.16
2022-12-25T20:11:20.037Z,99246.09
2022-12-25T20:13:46.656Z,99247.94
2022-12-25T20:16:13.570Z,99246.63
2022-12-25T20:18:40.465Z,99244.53
2022-12-25T20:21:11.058Z,99247.41
2022-12-25T20:23:37.806Z,99245.31
2022-12-25T20:26:05.466Z,99244.53
2022-12-25T20:28:34.761Z,99236.34
2022-12-25T20:31:12.457Z,99237.41
2022-12-25T20:33:39.003Z,99238.22
2022-12-25T20:36:06.821Z,99244.03
2022-12-25T20:38:33.867Z,99233.22
2022-12-25T20:41:26.248Z,99233.22
2022-12-25T20:43:50.812Z,99238.00
2022-12-25T20:46:17.397Z,99238.78
2022-12-25T20:48:44.355Z,99238.00
2022-12-25T20:51:15.774Z,99236.16
2022-12-25T20:53:42.527Z,99240.63
2022-12-25T20:56:11.018Z,99238.25
2022-12-25T20:58:37.943Z,99245.91
2022-12-25T21:01:07.024Z,99238.00
2022-12-25T21:03:34.486Z,99238.78
2022-12-25T21:06:01.522Z,99240.38
2022-12-25T21:08:28.834Z,99243.00
2022-12-25T21:11:00.658Z,99239.84
2022-12-25T21:13:33.126Z,99240.91
2022-12-25T21:16:00.399Z,99244.34
2022-12-25T21:18:28.277Z,99239.56
2022-12-25T21:20:57.416Z,99243.25
2022-12-25T21:23:26.628Z,99224.75
2022-12-25T21:25:54.000Z,99213.69
2022-12-25T21:28:21.708Z,99223.19
2022-12-25T21:30:48.450Z,99212.63
2022-12-25T21:33:34.090Z,99204.69
2022-12-25T21:36:11.305Z,99217.13
2022-12-25T21:38:38.964Z,99205.75
2022-12-25T21:41:08.483Z,99199.13
2022-12-25T21:43:36.070Z,99194.63
2022-12-25T21:46:04.280Z,99192.00
2022-12-25T21:48:32.078Z,99177.44
2022-12-25T21:51:25.096Z,99176.34
2022-12-25T21:53:51.742Z,99185.91
2022-12-25T21:56:18.274Z,99191.41
2022-12-25T21:58:44.830Z,99179.53
2022-12-25T22:01:11.889Z,99177.13
2022-12-25T22:03:38.553Z,99167.34
2022-12-25T22:06:23.770Z,99158.41
2022-12-25T22:08:50.352Z,99160.78
2022-12-25T22:11:35.552Z,99151.78
2022-12-25T22:14:20.770Z,99139.63
2022-12-25T22:17:26.826Z,99141.22
2022-12-25T22:19:53.645Z,99147.56
2022-12-25T22:22:23.485Z,99149.16
2022-12-25T22:24:51.597Z,99148.63
2022-12-25T22:27:18.992Z,99159.97
2022-12-25T22:29:45.564Z,99133.56
2022-12-25T22:32:13.070Z,99133.28
2022-12-25T22:34:39.723Z,99118.50
2022-12-25T22:37:08.227Z,99118.50
2022-12-25T22:39:35.674Z,99116.91
2022-12-25T22:42:02.371Z,99109.22
2022-12-25T22:44:30.896Z,99110.28
2022-12-25T22:46:57.842Z,99115.31
2022-12-25T22:49:25.444Z,99124.06
2022-12-25T22:51:53.142Z,99119.56
2022-12-25T22:54:21.242Z,99104.75
2022-12-25T22:56:50.961Z,99106.88
2022-12-25T22:59:20.601Z,99094.72
2022-12-25T23:01:47.502Z,99093.38
2022-12-25T23:04:14.149Z,99082.03
2022-12-25T23:06:41.153Z,99080.44
2022-12-25T23:09:08.990Z,99085.72
2022-12-25T23:11:36.099Z,99078.06
2022-12-25T23:14:21.187Z,99081.75
2022-12-25T23:16:47.717Z,99076.72
2022-12-25T23:19:32.824Z,99074.09
2022-12-25T23:22:18.262Z,99087.53
2022-12-25T23:25:03.621Z,99086.22
2022-12-25T23:27:30.162Z,99084.38
2022-12-25T23:29:56.713Z,99077.22
2022-12-25T23:32:25.988Z,99073.00
2022-12-25T23:34:52.768Z,99083.00
2022-12-25T23:37:19.834Z,99080.38
2022-12-25T23:39:47.477Z,99078.78
2022-12-25T23:42:14.022Z,99080.63
2022-12-25T23:44:40.533Z,99059.22
2022-12-25T23:47:07.116Z,99057.38
2022-12-25T23:49:33.749Z,99055.53
2022-12-25T23:52:00.294Z,99052.88
2022-12-25T23:54:29.781Z,99056.81
2022-12-25T23:56:57.584Z,99063.19
2022-12-25T23:59:25.765Z,99061.38
